createdAt,value
2022-12-09T00:01:07.586Z,80.75
2022-12-09T00:03:36.184Z,80.78
2022-12-09T00:06:08.170Z,79.91
2022-12-09T00:08:36.409Z,80.10
2022-12-09T00:11:04.578Z,79.98
2022-12-09T00:13:32.062Z,81.19
2022-12-09T00:16:01.182Z,82.30
2022-12-09T00:18:28.810Z,82.74
2022-12-09T00:20:56.487Z,82.85
2022-12-09T00:23:23.960Z,81.43
2022-12-09T00:25:51.476Z,81.59
2022-12-09T00:28:19.053Z,81.57
2022-12-09T00:30:46.628Z,80.74
2022-12-09T00:33:15.534Z,80.24
2022-12-09T00:35:43.200Z,79.80
2022-12-09T00:38:10.714Z,80.44
2022-12-09T00:40:38.424Z,80.17
2022-12-09T00:43:05.894Z,81.52
2022-12-09T00:45:33.363Z,82.11
2022-12-09T00:48:01.000Z,82.34
2022-12-09T00:50:30.030Z,82.20
2022-12-09T00:52:57.714Z,82.18
2022-12-09T00:55:25.498Z,81.48
2022-12-09T00:57:53.114Z,81.68
2022-12-09T01:00:21.059Z,82.66
2022-12-09T01:02:48.565Z,82.52
2022-12-09T01:05:16.248Z,82.64
2022-12-09T01:07:45.394Z,82.66
2022-12-09T01:10:13.149Z,82.34
2022-12-09T01:12:40.728Z,82.34
2022-12-09T01:15:09.515Z,82.26
2022-12-09T01:17:37.465Z,82.20
2022-12-09T01:20:05.550Z,81.94
2022-12-09T01:22:33.668Z,83.34
2022-12-09T01:25:03.012Z,83.35
2022-12-09T01:27:31.714Z,82.40
2022-12-09T01:29:59.357Z,82.34
2022-12-09T01:32:26.995Z,82.48
2022-12-09T01:34:54.591Z,85.26
2022-12-09T01:37:22.252Z,85.49
2022-12-09T01:39:50.365Z,84.35
2022-12-09T01:42:20.572Z,83.26
2022-12-09T01:45:37.145Z,83.21
2022-12-09T01:48:11.150Z,83.34
2022-12-09T01:50:42.564Z,83.57
2022-12-09T01:53:11.430Z,84.18
2022-12-09T01:55:39.256Z,84.15
2022-12-09T01:58:08.329Z,83.55
2022-12-09T02:00:36.470Z,83.60
2022-12-09T02:03:04.119Z,83.37
2022-12-09T02:05:31.911Z,82.65
2022-12-09T02:07:59.588Z,82.40
2022-12-09T02:10:28.636Z,82.51
2022-12-09T02:13:05.797Z,82.61
2022-12-09T02:15:41.844Z,82.04
2022-12-09T02:18:20.241Z,82.93
2022-12-09T02:20:55.067Z,83.83
2022-12-09T02:23:25.754Z,84.07
2022-12-09T02:25:57.313Z,82.77
2022-12-09T02:28:58.009Z,82.32
2022-12-09T02:31:44.638Z,83.29
2022-12-09T02:34:18.112Z,83.67
2022-12-09T02:36:55.802Z,83.69
2022-12-09T02:39:28.288Z,83.63
2022-12-09T02:41:59.551Z,83.39
2022-12-09T02:44:28.230Z,82.75
2022-12-09T02:46:56.909Z,83.58
2022-12-09T02:49:27.695Z,83.79
2022-12-09T02:51:56.526Z,84.13
2022-12-09T02:54:25.548Z,82.45
2022-12-09T02:56:57.826Z,83.07
2022-12-09T02:59:25.431Z,83.80
2022-12-09T03:02:02.554Z,83.20
2022-12-09T03:04:32.987Z,83.69
2022-12-09T03:07:12.321Z,83.56
2022-12-09T03:09:47.793Z,83.80
2022-12-09T03:12:21.302Z,82.94
2022-12-09T03:14:52.978Z,82.06
2022-12-09T03:17:25.131Z,82.37
2022-12-09T03:19:58.337Z,82.19
2022-12-09T03:22:30.253Z,82.08
2022-12-09T03:25:04.841Z,82.42
2022-12-09T03:27:37.891Z,82.70
2022-12-09T03:30:07.683Z,83.71
2022-12-09T03:32:39.294Z,85.66
2022-12-09T03:35:12.673Z,85.87
2022-12-09T03:37:42.785Z,85.57
2022-12-09T03:40:15.554Z,85.36
2022-12-09T03:42:50.086Z,85.66
2022-12-09T03:45:20.843Z,84.87
2022-12-09T03:47:48.451Z,85.48
2022-12-09T03:50:18.146Z,85.21
2022-12-09T03:52:50.109Z,85.51
2022-12-09T03:55:25.862Z,84.94
2022-12-09T03:57:58.138Z,85.61
2022-12-09T04:00:25.888Z,84.69
2022-12-09T04:02:53.677Z,84.23
2022-12-09T04:05:22.644Z,84.70
2022-12-09T04:07:50.249Z,84.82
2022-12-09T04:10:18.047Z,85.35
2022-12-09T04:12:45.574Z,84.81
2022-12-09T04:15:13.304Z,84.57
2022-12-09T04:17:40.955Z,84.37
2022-12-09T04:20:10.069Z,84.64
2022-12-09T04:22:39.378Z,83.46
2022-12-09T04:25:07.727Z,84.42
2022-12-09T04:27:37.602Z,84.55
2022-12-09T04:30:07.355Z,85.54
2022-12-09T04:32:35.581Z,84.63
2022-12-09T04:35:03.205Z,85.11
2022-12-09T04:37:30.781Z,85.26
2022-12-09T04:39:59.640Z,84.65
2022-12-09T04:42:29.313Z,84.71
2022-12-09T04:44:57.206Z,84.93
2022-12-09T04:47:24.770Z,84.84
2022-12-09T04:49:52.695Z,84.61
2022-12-09T04:52:20.814Z,84.59
2022-12-09T04:54:50.328Z,83.68
2022-12-09T04:57:19.568Z,83.21
2022-12-09T04:59:47.078Z,82.71
2022-12-09T05:02:14.903Z,83.22
2022-12-09T05:04:43.424Z,83.28
2022-12-09T05:07:12.544Z,83.19
2022-12-09T05:09:40.449Z,83.71
2022-12-09T05:12:08.925Z,84.05
2022-12-09T05:14:37.920Z,84.59
2022-12-09T05:17:07.418Z,83.97
2022-12-09T05:19:35.114Z,84.65
2022-12-09T05:22:02.899Z,84.90
2022-12-09T05:24:32.338Z,84.94
2022-12-09T05:26:59.905Z,84.00
2022-12-09T05:29:27.657Z,84.93
2022-12-09T05:31:56.708Z,84.75
2022-12-09T05:34:24.362Z,85.07
2022-12-09T05:36:53.570Z,84.39
2022-12-09T05:39:21.559Z,84.59
2022-12-09T05:41:49.588Z,85.13
2022-12-09T05:44:17.122Z,85.24
2022-12-09T05:46:44.891Z,85.30
2022-12-09T05:49:13.861Z,85.46
2022-12-09T05:51:42.032Z,85.56
2022-12-09T05:54:09.710Z,85.78
2022-12-09T05:56:39.479Z,85.57
2022-12-09T05:59:11.014Z,85.33
2022-12-09T06:01:38.682Z,85.06
2022-12-09T06:04:06.655Z,84.37
2022-12-09T06:06:36.018Z,84.04
2022-12-09T06:09:03.950Z,84.09
2022-12-09T06:11:33.468Z,84.56
2022-12-09T06:14:01.479Z,84.73
2022-12-09T06:16:29.356Z,84.32
2022-12-09T06:18:59.952Z,84.03
2022-12-09T06:21:27.952Z,84.96
2022-12-09T06:23:57.376Z,84.73
2022-12-09T06:26:27.156Z,84.08
2022-12-09T06:28:56.188Z,84.57
2022-12-09T06:31:24.908Z,85.41
2022-12-09T06:33:55.300Z,84.14
2022-12-09T06:36:24.226Z,84.49
2022-12-09T06:38:52.031Z,84.54
2022-12-09T06:41:21.286Z,84.21
2022-12-09T06:43:49.479Z,85.18
2022-12-09T06:46:19.644Z,84.71
2022-12-09T06:48:48.151Z,84.53
2022-12-09T06:51:16.991Z,84.68
2022-12-09T06:53:45.076Z,84.86
2022-12-09T06:56:13.530Z,83.61
2022-12-09T06:58:44.436Z,83.94
2022-12-09T07:01:15.043Z,83.71
2022-12-09T07:03:45.839Z,83.85
2022-12-09T07:06:21.948Z,84.54
2022-12-09T07:08:50.180Z,84.89
2022-12-09T07:11:18.377Z,84.86
2022-12-09T07:13:47.333Z,84.67
2022-12-09T07:16:15.047Z,85.05
2022-12-09T07:18:43.092Z,85.04
2022-12-09T07:21:12.534Z,85.16
2022-12-09T07:23:40.325Z,85.22
2022-12-09T07:26:08.786Z,85.06
2022-12-09T07:28:40.561Z,85.31
2022-12-09T07:31:18.567Z,85.24
2022-12-09T07:33:46.241Z,85.71
2022-12-09T07:36:20.534Z,84.80
2022-12-09T07:38:49.013Z,84.62
2022-12-09T07:41:19.233Z,84.33
2022-12-09T07:43:47.509Z,84.24
2022-12-09T07:46:18.209Z,83.98
2022-12-09T07:48:46.654Z,83.94
2022-12-09T07:51:15.155Z,83.84
2022-12-09T07:53:43.123Z,83.30
2022-12-09T07:56:14.781Z,83.68
2022-12-09T07:58:43.057Z,83.09
2022-12-09T08:01:13.427Z,84.02
2022-12-09T08:03:42.976Z,84.09
2022-12-09T08:06:13.044Z,84.10
2022-12-09T08:08:41.034Z,84.41
2022-12-09T08:11:09.616Z,84.15
2022-12-09T08:13:38.488Z,84.11
2022-12-09T08:16:08.511Z,83.39
2022-12-09T08:18:37.433Z,83.60
2022-12-09T08:21:09.634Z,83.00
2022-12-09T08:23:39.537Z,82.55
2022-12-09T08:26:07.670Z,81.55
2022-12-09T08:28:35.737Z,81.71
2022-12-09T08:31:07.352Z,81.28
2022-12-09T08:33:35.489Z,81.57
2022-12-09T08:36:03.285Z,81.41
2022-12-09T08:38:32.749Z,81.19
2022-12-09T08:41:08.607Z,81.51
2022-12-09T08:43:36.248Z,81.74
2022-12-09T08:46:04.061Z,82.08
2022-12-09T08:48:33.565Z,82.05
2022-12-09T08:51:01.279Z,82.09
2022-12-09T08:53:29.042Z,82.27
2022-12-09T08:55:58.242Z,81.91
2022-12-09T08:58:26.470Z,82.04
2022-12-09T09:00:54.369Z,82.48
2022-12-09T09:03:22.186Z,82.01
2022-12-09T09:05:50.416Z,81.32
2022-12-09T09:08:18.378Z,79.63
2022-12-09T09:10:46.029Z,80.07
2022-12-09T09:13:15.011Z,79.76
2022-12-09T09:15:42.984Z,79.53
2022-12-09T09:18:10.921Z,79.88
2022-12-09T09:20:38.366Z,80.14
2022-12-09T09:23:06.993Z,80.82
2022-12-09T09:25:35.186Z,80.36
2022-12-09T09:28:02.988Z,79.97
2022-12-09T09:30:32.311Z,80.50
2022-12-09T09:33:00.180Z,80.29
2022-12-09T09:35:27.907Z,79.68
2022-12-09T09:37:56.125Z,79.64
2022-12-09T09:40:24.238Z,79.91
2022-12-09T09:42:54.212Z,79.80
2022-12-09T09:45:24.898Z,80.37
2022-12-09T09:47:57.561Z,80.68
2022-12-09T09:50:32.799Z,80.56
2022-12-09T09:53:09.722Z,80.49
2022-12-09T09:55:43.285Z,80.88
2022-12-09T09:58:17.820Z,80.99
2022-12-09T10:00:55.797Z,80.62
2022-12-09T10:03:34.915Z,81.02
2022-12-09T10:06:09.714Z,80.20
2022-12-09T10:08:45.747Z,79.78
2022-12-09T10:11:19.809Z,79.47
2022-12-09T10:13:55.423Z,79.10
2022-12-09T10:16:27.321Z,78.76
2022-12-09T10:19:08.038Z,77.47
2022-12-09T10:21:41.478Z,76.89
2022-12-09T10:24:18.463Z,76.73
2022-12-09T10:26:56.372Z,76.58
2022-12-09T10:29:34.968Z,76.64
2022-12-09T10:32:02.795Z,76.03
2022-12-09T10:34:32.042Z,75.10
2022-12-09T10:36:59.797Z,75.60
2022-12-09T10:39:27.352Z,74.48
2022-12-09T10:42:15.498Z,74.81
2022-12-09T10:44:43.173Z,75.49
2022-12-09T10:47:24.790Z,75.06
2022-12-09T10:49:56.280Z,74.54
2022-12-09T10:52:25.762Z,74.96
2022-12-09T10:54:53.723Z,74.76
2022-12-09T10:57:27.488Z,75.21
2022-12-09T11:00:02.036Z,74.46
2022-12-09T11:02:32.867Z,73.77
2022-12-09T11:05:23.833Z,74.17
2022-12-09T11:07:53.666Z,73.59
2022-12-09T11:10:25.436Z,73.24
2022-12-09T11:12:55.389Z,73.06
2022-12-09T11:15:27.991Z,72.70
2022-12-09T11:17:59.477Z,72.00
2022-12-09T11:20:30.516Z,71.80
2022-12-09T11:23:05.786Z,71.48
2022-12-09T11:25:36.081Z,71.96
2022-12-09T11:28:06.669Z,71.67
2022-12-09T11:30:40.661Z,72.04
2022-12-09T11:33:25.357Z,71.76
2022-12-09T11:36:01.888Z,71.88
2022-12-09T11:38:37.250Z,71.57
2022-12-09T11:41:39.303Z,71.26
2022-12-09T11:44:21.567Z,70.67
2022-12-09T11:46:57.368Z,70.93
2022-12-09T11:49:25.486Z,70.96
2022-12-09T11:52:01.840Z,70.47
2022-12-09T11:54:35.830Z,70.02
2022-12-09T11:57:05.130Z,69.21
2022-12-09T12:02:36.151Z,68.96
2022-12-09T12:05:09.967Z,68.76
2022-12-09T12:07:43.956Z,69.36
2022-12-09T12:10:20.256Z,69.25
2022-12-09T12:13:00.184Z,69.00
2022-12-09T12:15:33.158Z,68.85
2022-12-09T12:18:03.146Z,68.47
2022-12-09T12:20:43.945Z,68.69
2022-12-09T12:23:31.727Z,69.13
2022-12-09T12:26:02.866Z,68.43
2022-12-09T12:28:57.215Z,67.51
2022-12-09T12:31:51.978Z,67.58
2022-12-09T12:34:34.335Z,67.42
2022-12-09T12:37:26.342Z,67.83
2022-12-09T12:40:05.526Z,67.37
2022-12-09T12:43:06.065Z,67.19
2022-12-09T12:46:00.476Z,67.60
2022-12-09T12:48:34.755Z,68.82
2022-12-09T12:51:15.479Z,69.22
2022-12-09T12:53:51.088Z,68.80
2022-12-09T12:56:24.462Z,69.80
2022-12-09T12:59:04.519Z,69.95
2022-12-09T13:01:34.946Z,70.03
2022-12-09T13:04:13.304Z,70.67
2022-12-09T13:06:46.377Z,70.26
2022-12-09T13:09:18.971Z,71.08
2022-12-09T13:12:01.119Z,72.33
2022-12-09T13:14:36.402Z,71.92
2022-12-09T13:17:08.447Z,71.84
2022-12-09T13:19:40.685Z,72.13
2022-12-09T13:22:17.080Z,72.21
2022-12-09T13:24:54.188Z,73.36
2022-12-09T13:27:35.613Z,73.00
2022-12-09T13:30:06.540Z,73.59
2022-12-09T13:32:59.534Z,73.32
2022-12-09T13:35:35.564Z,73.48
2022-12-09T13:38:03.124Z,73.57
2022-12-09T13:40:36.449Z,73.74
2022-12-09T13:43:12.670Z,72.62
2022-12-09T13:45:50.662Z,71.74
2022-12-09T13:48:44.599Z,71.05
2022-12-09T13:51:12.837Z,71.73
2022-12-09T13:53:47.254Z,71.58
2022-12-09T13:56:30.416Z,71.34
2022-12-09T13:59:44.444Z,71.82
2022-12-09T14:02:19.675Z,71.84
2022-12-09T14:04:55.928Z,72.03
2022-12-09T14:07:33.612Z,71.54
2022-12-09T14:10:02.418Z,71.77
2022-12-09T14:13:05.687Z,72.64
2022-12-09T14:15:41.274Z,72.37
2022-12-09T14:18:30.859Z,72.56
2022-12-09T14:21:24.205Z,72.63
2022-12-09T14:24:28.842Z,73.52
2022-12-09T14:27:12.121Z,73.55
2022-12-09T14:29:54.983Z,72.86
2022-12-09T14:32:28.973Z,73.38
2022-12-09T14:35:20.894Z,74.03
2022-12-09T14:38:00.789Z,74.38
2022-12-09T14:40:51.802Z,74.82
2022-12-09T14:43:35.453Z,75.01
2022-12-09T14:46:07.526Z,75.36
2022-12-09T14:48:39.059Z,76.60
2022-12-09T14:51:18.767Z,77.34
2022-12-09T14:53:50.956Z,77.81
2022-12-09T14:56:20.406Z,77.60
2022-12-09T14:58:50.111Z,78.94
2022-12-09T15:01:19.020Z,78.94
2022-12-09T15:03:54.765Z,78.89
2022-12-09T15:06:26.563Z,79.08
2022-12-09T15:08:59.894Z,79.34
2022-12-09T15:11:31.356Z,79.71
2022-12-09T15:14:22.299Z,80.70
2022-12-09T15:16:51.194Z,81.17
2022-12-09T15:19:58.000Z,81.64
2022-12-09T15:22:20.491Z,81.73
2022-12-09T15:24:50.459Z,81.63
2022-12-09T15:27:20.999Z,81.71
2022-12-09T15:29:49.957Z,82.17
2022-12-09T15:32:21.348Z,82.37
2022-12-09T15:34:50.327Z,82.39
2022-12-09T15:37:20.751Z,82.84
2022-12-09T15:39:52.829Z,82.62
2022-12-09T15:42:26.987Z,82.44
2022-12-09T15:45:01.784Z,82.12
2022-12-09T15:47:33.671Z,82.01
2022-12-09T15:50:12.010Z,82.80
2022-12-09T15:52:46.217Z,83.56
2022-12-09T15:55:18.775Z,83.45
2022-12-09T15:57:49.852Z,82.82
2022-12-09T16:00:17.917Z,83.32
2022-12-09T16:02:46.090Z,82.81
2022-12-09T16:05:22.252Z,82.34
2022-12-09T16:07:55.734Z,82.67
2022-12-09T16:10:26.666Z,83.02
2022-12-09T16:13:11.693Z,82.60
2022-12-09T16:15:53.691Z,82.21
2022-12-09T16:18:24.967Z,82.25
2022-12-09T16:21:18.791Z,81.84
2022-12-09T16:23:49.362Z,81.67
2022-12-09T16:26:20.835Z,81.95
2022-12-09T16:28:55.695Z,82.00
2022-12-09T16:31:23.357Z,82.16
2022-12-09T16:33:51.787Z,81.85
2022-12-09T16:36:25.274Z,81.81
2022-12-09T16:39:20.667Z,82.25
2022-12-09T16:42:01.530Z,82.92
2022-12-09T16:44:32.752Z,82.30
2022-12-09T16:47:14.579Z,82.58
2022-12-09T16:49:43.751Z,83.02
2022-12-09T16:52:15.281Z,82.83
2022-12-09T16:54:44.421Z,83.52
2022-12-09T16:57:16.569Z,83.85
2022-12-09T16:59:45.401Z,83.17
2022-12-09T17:02:19.856Z,83.65
2022-12-09T17:04:48.948Z,83.82
2022-12-09T17:07:17.759Z,84.78
2022-12-09T17:09:45.319Z,85.33
2022-12-09T17:12:12.797Z,85.65
2022-12-09T17:14:40.316Z,85.85
2022-12-09T17:17:07.863Z,85.45
2022-12-09T17:19:35.373Z,85.88
2022-12-09T17:22:02.893Z,85.96
2022-12-09T17:24:31.703Z,87.54
2022-12-09T17:26:59.370Z,87.46
2022-12-09T17:29:26.903Z,86.73
2022-12-09T17:31:54.787Z,86.95
2022-12-09T17:34:22.283Z,87.17
2022-12-09T17:36:49.840Z,86.56
2022-12-09T17:39:17.368Z,85.98
2022-12-09T17:41:46.185Z,84.95
2022-12-09T17:44:13.880Z,85.06
2022-12-09T17:46:41.366Z,84.16
2022-12-09T17:49:08.864Z,85.00
2022-12-09T17:51:36.791Z,83.97
2022-12-09T17:54:04.600Z,84.00
2022-12-09T17:56:32.289Z,83.64
2022-12-09T17:59:03.613Z,83.61
2022-12-09T18:01:33.999Z,83.08
2022-12-09T18:04:07.625Z,83.29
2022-12-09T18:06:36.639Z,83.60
2022-12-09T18:09:05.192Z,83.84
2022-12-09T18:11:33.361Z,84.05
2022-12-09T18:14:02.297Z,82.91
2022-12-09T18:16:30.115Z,83.00
2022-12-09T18:19:02.269Z,82.86
2022-12-09T18:21:29.757Z,82.00
2022-12-09T18:23:57.314Z,80.98
2022-12-09T18:26:30.501Z,80.92
2022-12-09T18:29:00.029Z,80.91
2022-12-09T18:31:29.120Z,81.17
2022-12-09T18:33:57.415Z,80.93
2022-12-09T18:36:26.979Z,80.63
2022-12-09T18:38:54.780Z,80.38
2022-12-09T18:41:25.095Z,80.80
2022-12-09T18:43:54.447Z,81.08
2022-12-09T18:46:25.639Z,80.55
2022-12-09T18:48:58.422Z,80.90
2022-12-09T18:51:26.583Z,80.86
2022-12-09T18:53:54.232Z,80.77
2022-12-09T18:56:21.762Z,81.36
2022-12-09T18:59:06.039Z,81.28
2022-12-09T19:01:38.837Z,80.04
2022-12-09T19:04:11.229Z,80.74
2022-12-09T19:06:40.559Z,80.81
2022-12-09T19:09:10.068Z,80.30
2022-12-09T19:11:39.339Z,80.89
2022-12-09T19:14:08.411Z,81.44
2022-12-09T19:16:36.465Z,81.36
2022-12-09T19:19:09.543Z,80.68
2022-12-09T19:21:39.964Z,80.84
2022-12-09T19:24:08.512Z,80.62
2022-12-09T19:26:37.301Z,81.01
2022-12-09T19:29:07.390Z,81.20
2022-12-09T19:31:36.725Z,80.75
2022-12-09T19:34:05.763Z,80.61
2022-12-09T19:36:34.275Z,81.31
2022-12-09T19:39:04.952Z,81.07
2022-12-09T19:41:32.856Z,80.84
2022-12-09T19:44:02.235Z,80.34
2022-12-09T19:46:30.006Z,80.99
2022-12-09T19:48:58.439Z,80.96
2022-12-09T19:51:27.771Z,80.46
2022-12-09T19:53:57.116Z,80.52
2022-12-09T19:56:26.920Z,79.88
2022-12-09T19:58:54.955Z,80.00
2022-12-09T20:01:23.621Z,79.95
2022-12-09T20:04:08.764Z,79.82
2022-12-09T20:06:42.016Z,80.20
2022-12-09T20:09:13.770Z,80.71
2022-12-09T20:11:43.043Z,80.58
2022-12-09T20:14:13.496Z,80.44
2022-12-09T20:16:41.372Z,81.30
2022-12-09T20:19:09.583Z,81.28
2022-12-09T20:21:37.636Z,81.34
2022-12-09T20:24:05.959Z,80.86
2022-12-09T20:26:35.963Z,80.83
2022-12-09T20:29:06.938Z,80.94
2022-12-09T20:31:36.458Z,81.31
2022-12-09T20:34:06.213Z,80.56
2022-12-09T20:36:38.187Z,81.16
2022-12-09T20:39:11.164Z,81.06
2022-12-09T20:41:41.709Z,81.40
2022-12-09T20:44:11.898Z,81.07
2022-12-09T20:46:40.857Z,79.84
2022-12-09T20:49:08.516Z,80.37
2022-12-09T20:51:39.215Z,81.13
2022-12-09T20:54:08.100Z,80.51
2022-12-09T20:56:36.401Z,80.28
2022-12-09T20:59:04.817Z,79.74
2022-12-09T21:01:35.505Z,80.21
2022-12-09T21:04:05.779Z,80.16
2022-12-09T21:06:35.790Z,80.55
2022-12-09T21:09:05.836Z,80.54
2022-12-09T21:11:33.742Z,80.57
2022-12-09T21:14:03.579Z,80.48
2022-12-09T21:16:34.179Z,80.80
2022-12-09T21:19:05.162Z,81.04
2022-12-09T21:21:36.484Z,80.20
2022-12-09T21:24:05.033Z,80.20
2022-12-09T21:26:32.654Z,80.62
2022-12-09T21:29:01.877Z,80.44
2022-12-09T21:31:31.354Z,80.70
2022-12-09T21:34:03.413Z,81.73
2022-12-09T21:36:33.118Z,81.58
2022-12-09T21:39:00.818Z,82.07
2022-12-09T21:41:30.578Z,82.98
2022-12-09T21:43:58.405Z,83.08
2022-12-09T21:46:27.716Z,83.03
2022-12-09T21:49:03.039Z,82.48
2022-12-09T21:51:33.520Z,82.84
2022-12-09T21:54:01.063Z,83.13
2022-12-09T21:56:30.870Z,83.40
2022-12-09T21:58:59.645Z,83.57
2022-12-09T22:01:28.816Z,83.88
2022-12-09T22:03:57.334Z,84.91
2022-12-09T22:06:24.983Z,84.66
2022-12-09T22:08:53.904Z,83.90
2022-12-09T22:11:23.445Z,84.20
2022-12-09T22:13:51.360Z,83.85
2022-12-09T22:16:21.076Z,85.14
2022-12-09T22:18:49.737Z,85.10
2022-12-09T22:21:25.998Z,86.28
2022-12-09T22:23:56.968Z,86.40
2022-12-09T22:26:25.179Z,87.05
2022-12-09T22:28:53.614Z,86.56
2022-12-09T22:31:23.162Z,86.81
2022-12-09T22:33:51.881Z,87.08
2022-12-09T22:36:20.387Z,86.87
2022-12-09T22:38:48.416Z,86.53
2022-12-09T22:41:18.025Z,85.97
2022-12-09T22:43:45.906Z,86.59
2022-12-09T22:46:15.744Z,87.33
2022-12-09T22:48:44.018Z,86.34
2022-12-09T22:51:13.429Z,85.59
2022-12-09T22:53:41.563Z,85.50
2022-12-09T22:56:09.565Z,85.90
2022-12-09T22:58:38.853Z,86.25
2022-12-09T23:01:10.261Z,85.80
2022-12-09T23:03:37.752Z,85.04
2022-12-09T23:06:05.598Z,84.73
2022-12-09T23:08:33.186Z,84.93
2022-12-09T23:11:05.513Z,84.91
2022-12-09T23:13:37.594Z,84.28
2022-12-09T23:16:12.710Z,83.84
2022-12-09T23:18:41.029Z,83.37
2022-12-09T23:21:10.260Z,83.14
2022-12-09T23:23:38.296Z,83.77
2022-12-09T23:26:07.261Z,84.39
2022-12-09T23:28:36.936Z,84.80
2022-12-09T23:31:05.851Z,84.99
2022-12-09T23:33:36.735Z,85.14
2022-12-09T23:36:06.828Z,84.86
2022-12-09T23:38:34.418Z,84.49
2022-12-09T23:41:02.118Z,84.11
2022-12-09T23:43:31.378Z,84.33
2022-12-09T23:46:06.816Z,84.47
2022-12-09T23:48:40.316Z,85.16
2022-12-09T23:51:11.386Z,85.34
2022-12-09T23:53:39.441Z,85.25
2022-12-09T23:56:07.164Z,84.77
2022-12-09T23:58:35.156Z,84.87
